sensor_id;sensor_type;location;lat;lon;timestamp;pressure;altitude;pressure_sealevel;temperature;humidity
79150;BME280;68563;45.644;13.782;2024-02-23T00:00:37;100068.03;;;10.89;75.50
79150;BME280;68563;45.644;13.782;2024-02-23T00:03:02;100052.81;;;10.76;75.79
79150;BME280;68563;45.644;13.782;2024-02-23T00:05:28;100063.94;;;10.81;75.63
79150;BME280;68563;45.644;13.782;2024-02-23T00:07:53;100068.34;;;10.76;76.05
79150;BME280;68563;45.644;13.782;2024-02-23T00:10:18;100059.78;;;10.74;76.22
79150;BME280;68563;45.644;13.782;2024-02-23T00:12:44;100056.06;;;10.84;75.91
79150;BME280;68563;45.644;13.782;2024-02-23T00:15:10;100052.66;;;10.82;75.79
79150;BME280;68563;45.644;13.782;2024-02-23T00:17:35;100040.72;;;10.77;76.32
79150;BME280;68563;45.644;13.782;2024-02-23T00:20:01;100040.63;;;10.80;76.27
79150;BME280;68563;45.644;13.782;2024-02-23T00:22:26;100042.28;;;10.82;75.81
79150;BME280;68563;45.644;13.782;2024-02-23T00:24:51;100036.44;;;10.76;76.16
79150;BME280;68563;45.644;13.782;2024-02-23T00:27:17;100031.97;;;10.81;76.11
79150;BME280;68563;45.644;13.782;2024-02-23T00:29:42;100030.22;;;10.83;76.50
79150;BME280;68563;45.644;13.782;2024-02-23T00:32:08;100026.19;;;10.71;75.96
79150;BME280;68563;45.644;13.782;2024-02-23T00:34:33;100021.84;;;10.72;75.48
79150;BME280;68563;45.644;13.782;2024-02-23T00:36:58;100032.06;;;10.78;75.58
79150;BME280;68563;45.644;13.782;2024-02-23T00:39:24;100016.78;;;10.67;75.66
79150;BME280;68563;45.644;13.782;2024-02-23T00:41:49;100022.69;;;10.72;75.75
79150;BME280;68563;45.644;13.782;2024-02-23T00:44:15;100020.06;;;10.74;75.68
79150;BME280;68563;45.644;13.782;2024-02-23T00:46:40;100023.53;;;10.73;75.77
79150;BME280;68563;45.644;13.782;2024-02-23T00:49:06;100020.13;;;10.72;75.73
79150;BME280;68563;45.644;13.782;2024-02-23T00:51:32;100010.53;;;10.76;75.95
79150;BME280;68563;45.644;13.782;2024-02-23T00:53:57;100000.28;;;10.71;75.41
79150;BME280;68563;45.644;13.782;2024-02-23T00:56:23;100007.28;;;10.67;75.51
79150;BME280;68563;45.644;13.782;2024-02-23T00:58:48;100002.91;;;10.69;76.24
79150;BME280;68563;45.644;13.782;2024-02-23T01:01:14;100004.53;;;10.74;75.87
79150;BME280;68563;45.644;13.782;2024-02-23T01:03:39;100008.78;;;10.76;75.69
79150;BME280;68563;45.644;13.782;2024-02-23T01:06:04;100010.63;;;10.71;76.09
79150;BME280;68563;45.644;13.782;2024-02-23T01:08:30;100011.53;;;10.70;75.32
79150;BME280;68563;45.644;13.782;2024-02-23T01:10:56;100014.81;;;10.77;75.01
79150;BME280;68563;45.644;13.782;2024-02-23T01:13:21;100004.63;;;10.69;75.40
79150;BME280;68563;45.644;13.782;2024-02-23T01:15:47;100007.28;;;10.67;75.38
79150;BME280;68563;45.644;13.782;2024-02-23T01:18:12;100004.47;;;10.75;75.67
79150;BME280;68563;45.644;13.782;2024-02-23T01:20:38;100004.56;;;10.72;76.02
79150;BME280;68563;45.644;13.782;2024-02-23T01:23:03;99999.47;;;10.69;75.73
79150;BME280;68563;45.644;13.782;2024-02-23T01:25:29;100000.28;;;10.71;75.89
79150;BME280;68563;45.644;13.782;2024-02-23T01:27:54;100001.06;;;10.75;74.88
79150;BME280;68563;45.644;13.782;2024-02-23T01:30:19;99996.72;;;10.75;75.07
79150;BME280;68563;45.644;13.782;2024-02-23T01:32:45;99994.38;;;10.64;75.95
79150;BME280;68563;45.644;13.782;2024-02-23T01:35:11;100006.50;;;10.64;76.45
79150;BME280;68563;45.644;13.782;2024-02-23T01:37:37;99993.34;;;10.73;74.86
79150;BME280;68563;45.644;13.782;2024-02-23T01:40:02;99985.72;;;10.67;75.17
79150;BME280;68563;45.644;13.782;2024-02-23T01:42:28;99985.81;;;10.62;75.72
79150;BME280;68563;45.644;13.782;2024-02-23T01:44:54;99977.34;;;10.56;76.07
79150;BME280;68563;45.644;13.782;2024-02-23T01:47:22;99975.63;;;10.54;76.40
79150;BME280;68563;45.644;13.782;2024-02-23T01:49:49;99975.56;;;10.58;75.85
79150;BME280;68563;45.644;13.782;2024-02-23T01:52:15;99968.63;;;10.58;75.37
79150;BME280;68563;45.644;13.782;2024-02-23T01:54:41;99978.84;;;10.64;75.92
79150;BME280;68563;45.644;13.782;2024-02-23T01:57:08;99968.50;;;10.64;75.77
79150;BME280;68563;45.644;13.782;2024-02-23T01:59:35;99969.25;;;10.68;76.04
79150;BME280;68563;45.644;13.782;2024-02-23T02:02:03;99960.09;;;10.56;75.45
79150;BME280;68563;45.644;13.782;2024-02-23T02:04:29;99946.31;;;10.54;75.25
79150;BME280;68563;45.644;13.782;2024-02-23T02:06:55;99955.53;;;10.66;75.06
79150;BME280;68563;45.644;13.782;2024-02-23T02:09:20;99949.63;;;10.59;75.53
79150;BME280;68563;45.644;13.782;2024-02-23T02:11:47;99943.63;;;10.59;75.03
79150;BME280;68563;45.644;13.782;2024-02-23T02:14:12;99946.13;;;10.62;74.83
79150;BME280;68563;45.644;13.782;2024-02-23T02:16:38;99936.53;;;10.65;75.33
79150;BME280;68563;45.644;13.782;2024-02-23T02:19:04;99928.13;;;10.57;75.49
79150;BME280;68563;45.644;13.782;2024-02-23T02:21:31;99930.56;;;10.63;75.04
79150;BME280;68563;45.644;13.782;2024-02-23T02:23:56;99922.78;;;10.63;75.24
79150;BME280;68563;45.644;13.782;2024-02-23T02:26:22;99929.78;;;10.60;75.67
79150;BME280;68563;45.644;13.782;2024-02-23T02:28:47;99917.69;;;10.60;74.74
79150;BME280;68563;45.644;13.782;2024-02-23T02:31:13;99910.72;;;10.62;75.16
79150;BME280;68563;45.644;13.782;2024-02-23T02:33:40;99905.50;;;10.64;73.95
79150;BME280;68563;45.644;13.782;2024-02-23T02:36:05;99895.16;;;10.64;74.17
79150;BME280;68563;45.644;13.782;2024-02-23T02:38:31;99893.53;;;10.60;74.88
79150;BME280;68563;45.644;13.782;2024-02-23T02:40:58;99889.00;;;10.68;74.21
79150;BME280;68563;45.644;13.782;2024-02-23T02:43:25;99885.88;;;10.55;75.29
79150;BME280;68563;45.644;13.782;2024-02-23T02:45:51;99894.69;;;10.48;74.56
79150;BME280;68563;45.644;13.782;2024-02-23T02:48:16;99882.59;;;10.48;74.71
79150;BME280;68563;45.644;13.782;2024-02-23T02:50:42;99873.81;;;10.54;74.90
79150;BME280;68563;45.644;13.782;2024-02-23T02:53:07;99879.16;;;10.48;74.99
79150;BME280;68563;45.644;13.782;2024-02-23T02:55:33;99883.47;;;10.47;74.46
79150;BME280;68563;45.644;13.782;2024-02-23T02:57:58;99879.22;;;10.46;74.63
79150;BME280;68563;45.644;13.782;2024-02-23T03:00:24;99867.03;;;10.50;74.64
79150;BME280;68563;45.644;13.782;2024-02-23T03:02:49;99869.59;;;10.51;74.86
79150;BME280;68563;45.644;13.782;2024-02-23T03:05:15;99862.75;;;10.49;74.70
79150;BME280;68563;45.644;13.782;2024-02-23T03:07:40;99866.94;;;10.53;74.63
79150;BME280;68563;45.644;13.782;2024-02-23T03:10:06;99864.44;;;10.50;74.32
79150;BME280;68563;45.644;13.782;2024-02-23T03:12:32;99856.63;;;10.51;74.63
79150;BME280;68563;45.644;13.782;2024-02-23T03:14:58;99869.84;;;10.41;74.84
79150;BME280;68563;45.644;13.782;2024-02-23T03:17:23;99859.38;;;10.45;74.67
79150;BME280;68563;45.644;13.782;2024-02-23T03:19:49;99867.38;;;10.34;74.55
79150;BME280;68563;45.644;13.782;2024-02-23T03:22:15;99856.97;;;10.37;74.46
79150;BME280;68563;45.644;13.782;2024-02-23T03:24:41;99862.16;;;10.37;74.79
79150;BME280;68563;45.644;13.782;2024-02-23T03:27:06;99853.50;;;10.38;74.61
79150;BME280;68563;45.644;13.782;2024-02-23T03:29:32;99844.91;;;10.36;74.60
79150;BME280;68563;45.644;13.782;2024-02-23T03:31:57;99843.22;;;10.34;74.20
79150;BME280;68563;45.644;13.782;2024-02-23T03:34:22;99847.38;;;10.43;74.02
79150;BME280;68563;45.644;13.782;2024-02-23T03:36:48;99842.16;;;10.44;74.43
79150;BME280;68563;45.644;13.782;2024-02-23T03:39:14;99843.97;;;10.41;75.04
79150;BME280;68563;45.644;13.782;2024-02-23T03:41:39;99835.22;;;10.46;74.57
79150;BME280;68563;45.644;13.782;2024-02-23T03:44:05;99831.81;;;10.44;74.55
79150;BME280;68563;45.644;13.782;2024-02-23T03:46:30;99836.19;;;10.41;74.82
79150;BME280;68563;45.644;13.782;2024-02-23T03:48:56;99830.34;;;10.32;74.93
79150;BME280;68563;45.644;13.782;2024-02-23T03:51:22;99833.91;;;10.28;75.10
79150;BME280;68563;45.644;13.782;2024-02-23T03:53:47;99821.03;;;10.25;74.78
79150;BME280;68563;45.644;13.782;2024-02-23T03:56:12;99829.50;;;10.30;75.32
79150;BME280;68563;45.644;13.782;2024-02-23T03:58:38;99831.22;;;10.31;75.61
79150;BME280;68563;45.644;13.782;2024-02-23T04:01:03;99827.69;;;10.35;75.89
79150;BME280;68563;45.644;13.782;2024-02-23T04:03:29;99820.75;;;10.37;75.67
79150;BME280;68563;45.644;13.782;2024-02-23T04:05:54;99819.75;;;10.43;75.42
79150;BME280;68563;45.644;13.782;2024-02-23T04:08:19;99813.03;;;10.34;75.64
79150;BME280;68563;45.644;13.782;2024-02-23T04:10:45;99814.72;;;10.37;75.55
79150;BME280;68563;45.644;13.782;2024-02-23T04:13:10;99805.13;;;10.41;75.39
79150;BME280;68563;45.644;13.782;2024-02-23T04:15:39;99811.00;;;10.47;74.64
79150;BME280;68563;45.644;13.782;2024-02-23T04:18:05;99812.03;;;10.42;75.19
79150;BME280;68563;45.644;13.782;2024-02-23T04:20:30;99808.63;;;10.40;75.47
79150;BME280;68563;45.644;13.782;2024-02-23T04:22:56;99796.69;;;10.32;75.11
79150;BME280;68563;45.644;13.782;2024-02-23T04:25:21;99796.56;;;10.38;75.05
79150;BME280;68563;45.644;13.782;2024-02-23T04:27:46;99788.03;;;10.33;74.04
79150;BME280;68563;45.644;13.782;2024-02-23T04:30:12;99795.84;;;10.32;74.63
79150;BME280;68563;45.644;13.782;2024-02-23T04:32:38;99800.09;;;10.34;74.39
79150;BME280;68563;45.644;13.782;2024-02-23T04:35:04;99788.97;;;10.31;74.38
79150;BME280;68563;45.644;13.782;2024-02-23T04:37:29;99789.69;;;10.37;74.46
79150;BME280;68563;45.644;13.782;2024-02-23T04:39:55;99791.38;;;10.38;74.28
79150;BME280;68563;45.644;13.782;2024-02-23T04:42:20;99797.38;;;10.41;74.88
79150;BME280;68563;45.644;13.782;2024-02-23T04:44:46;99789.69;;;10.36;74.06
79150;BME280;68563;45.644;13.782;2024-02-23T04:47:11;99783.63;;;10.38;73.47
79150;BME280;68563;45.644;13.782;2024-02-23T04:49:37;99786.44;;;10.28;74.07
79150;BME280;68563;45.644;13.782;2024-02-23T04:52:02;99783.75;;;10.32;73.89
79150;BME280;68563;45.644;13.782;2024-02-23T04:54:28;99780.19;;;10.38;73.82
79150;BME280;68563;45.644;13.782;2024-02-23T04:56:53;99766.47;;;10.34;73.52
79150;BME280;68563;45.644;13.782;2024-02-23T04:59:19;99756.03;;;10.37;74.12
79150;BME280;68563;45.644;13.782;2024-02-23T05:01:44;99760.50;;;10.31;73.49
79150;BME280;68563;45.644;13.782;2024-02-23T05:04:09;99755.22;;;10.35;73.34
79150;BME280;68563;45.644;13.782;2024-02-23T05:06:35;99741.38;;;10.38;73.48
79150;BME280;68563;45.644;13.782;2024-02-23T05:09:01;99739.44;;;10.45;73.23
79150;BME280;68563;45.644;13.782;2024-02-23T05:11:26;99742.13;;;10.42;72.75
79150;BME280;68563;45.644;13.782;2024-02-23T05:13:52;99731.03;;;10.36;73.47
79150;BME280;68563;45.644;13.782;2024-02-23T05:16:17;99733.69;;;10.33;72.96
79150;BME280;68563;45.644;13.782;2024-02-23T05:18:43;99735.41;;;10.33;72.96
79150;BME280;68563;45.644;13.782;2024-02-23T05:21:09;99725.88;;;10.36;72.95
79150;BME280;68563;45.644;13.782;2024-02-23T05:23:35;99725.72;;;10.43;72.22
79150;BME280;68563;45.644;13.782;2024-02-23T05:26:00;99724.03;;;10.40;72.41
79150;BME280;68563;45.644;13.782;2024-02-23T05:28:26;99715.38;;;10.43;71.52
79150;BME280;68563;45.644;13.782;2024-02-23T05:30:51;99711.88;;;10.44;71.63
79150;BME280;68563;45.644;13.782;2024-02-23T05:33:17;99710.09;;;10.46;71.05
79150;BME280;68563;45.644;13.782;2024-02-23T05:35:46;99715.97;;;10.51;71.33
79150;BME280;68563;45.644;13.782;2024-02-23T05:38:11;99702.31;;;10.46;71.06
79150;BME280;68563;45.644;13.782;2024-02-23T05:40:37;99706.63;;;10.47;70.47
79150;BME280;68563;45.644;13.782;2024-02-23T05:43:02;99703.03;;;10.51;70.17
79150;BME280;68563;45.644;13.782;2024-02-23T05:45:27;99697.84;;;10.51;69.73
79150;BME280;68563;45.644;13.782;2024-02-23T05:47:53;99701.19;;;10.56;69.93
79150;BME280;68563;45.644;13.782;2024-02-23T05:50:19;99695.16;;;10.56;70.28
79150;BME280;68563;45.644;13.782;2024-02-23T05:52:44;99696.84;;;10.57;69.89
79150;BME280;68563;45.644;13.782;2024-02-23T05:55:09;99687.25;;;10.60;69.48
79150;BME280;68563;45.644;13.782;2024-02-23T05:57:35;99682.25;;;10.54;68.99
79150;BME280;68563;45.644;13.782;2024-02-23T06:00:00;99686.38;;;10.61;68.68
79150;BME280;68563;45.644;13.782;2024-02-23T06:02:26;99686.38;;;10.61;68.79
79150;BME280;68563;45.644;13.782;2024-02-23T06:04:51;99660.53;;;10.60;68.38
79150;BME280;68563;45.644;13.782;2024-02-23T06:07:17;99662.88;;;10.67;68.93
79150;BME280;68563;45.644;13.782;2024-02-23T06:09:43;99666.16;;;10.73;68.03
79150;BME280;68563;45.644;13.782;2024-02-23T06:12:08;99654.03;;;10.75;67.31
79150;BME280;68563;45.644;13.782;2024-02-23T06:14:34;99655.75;;;10.76;67.46
79150;BME280;68563;45.644;13.782;2024-02-23T06:17:00;99646.19;;;10.78;67.08
79150;BME280;68563;45.644;13.782;2024-02-23T06:19:25;99655.63;;;10.79;66.37
79150;BME280;68563;45.644;13.782;2024-02-23T06:21:51;99653.72;;;10.85;66.58
79150;BME280;68563;45.644;13.782;2024-02-23T06:24:16;99645.06;;;10.85;66.67
79150;BME280;68563;45.644;13.782;2024-02-23T06:26:42;99650.25;;;10.85;66.59
79150;BME280;68563;45.644;13.782;2024-02-23T06:29:08;99652.56;;;10.94;66.32
79150;BME280;68563;45.644;13.782;2024-02-23T06:31:38;99638.88;;;10.91;67.33
79150;BME280;68563;45.644;13.782;2024-02-23T06:34:04;99646.59;;;10.92;67.68
79150;BME280;68563;45.644;13.782;2024-02-23T06:36:30;99647.44;;;10.93;67.85
79150;BME280;68563;45.644;13.782;2024-02-23T06:38:55;99635.44;;;10.90;68.90
79150;BME280;68563;45.644;13.782;2024-02-23T06:41:21;99648.41;;;10.90;69.62
79150;BME280;68563;45.644;13.782;2024-02-23T06:43:46;99637.84;;;10.96;70.08
79150;BME280;68563;45.644;13.782;2024-02-23T06:46:12;99645.81;;;10.90;70.55
79150;BME280;68563;45.644;13.782;2024-02-23T06:48:38;99639.47;;;10.99;70.99
79150;BME280;68563;45.644;13.782;2024-02-23T06:51:06;99625.53;;;11.03;71.19
79150;BME280;68563;45.644;13.782;2024-02-23T06:53:35;99634.25;;;11.00;71.35
79150;BME280;68563;45.644;13.782;2024-02-23T06:56:00;99630.88;;;10.98;71.93
79150;BME280;68563;45.644;13.782;2024-02-23T06:58:26;99619.56;;;11.01;72.07
79150;BME280;68563;45.644;13.782;2024-02-23T07:00:52;99615.22;;;11.01;72.39
79150;BME280;68563;45.644;13.782;2024-02-23T07:03:17;99638.53;;;11.01;72.74
79150;BME280;68563;45.644;13.782;2024-02-23T07:05:43;99623.59;;;11.10;72.13
79150;BME280;68563;45.644;13.782;2024-02-23T07:08:08;99631.25;;;11.14;72.47
79150;BME280;68563;45.644;13.782;2024-02-23T07:10:34;99621.75;;;11.13;72.22
79150;BME280;68563;45.644;13.782;2024-02-23T07:12:59;99643.84;;;11.25;72.60
79150;BME280;68563;45.644;13.782;2024-02-23T07:15:25;99632.47;;;11.29;72.48
79150;BME280;68563;45.644;13.782;2024-02-23T07:17:51;99647.19;;;11.29;72.66
79150;BME280;68563;45.644;13.782;2024-02-23T07:20:17;99647.13;;;11.30;72.50
79150;BME280;68563;45.644;13.782;2024-02-23T07:22:44;99650.41;;;11.36;73.02
79150;BME280;68563;45.644;13.782;2024-02-23T07:25:10;99647.00;;;11.35;72.88
79150;BME280;68563;45.644;13.782;2024-02-23T07:27:35;99634.03;;;11.35;73.05
79150;BME280;68563;45.644;13.782;2024-02-23T07:30:00;99638.16;;;11.41;72.83
79150;BME280;68563;45.644;13.782;2024-02-23T07:32:28;99619.31;;;11.36;72.74
79150;BME280;68563;45.644;13.782;2024-02-23T07:34:54;99633.97;;;11.37;73.16
79150;BME280;68563;45.644;13.782;2024-02-23T07:37:20;99608.84;;;11.39;72.94
79150;BME280;68563;45.644;13.782;2024-02-23T07:39:45;99622.75;;;11.36;72.79
79150;BME280;68563;45.644;13.782;2024-02-23T07:42:11;99635.59;;;11.39;73.21
79150;BME280;68563;45.644;13.782;2024-02-23T07:44:38;99620.81;;;11.43;72.68
79150;BME280;68563;45.644;13.782;2024-02-23T07:47:04;99626.88;;;11.42;73.19
79150;BME280;68563;45.644;13.782;2024-02-23T07:49:29;99607.38;;;11.31;73.28
79150;BME280;68563;45.644;13.782;2024-02-23T07:51:55;99618.34;;;11.40;73.38
79150;BME280;68563;45.644;13.782;2024-02-23T07:54:20;99594.03;;;11.42;72.26
79150;BME280;68563;45.644;13.782;2024-02-23T07:56:46;99600.00;;;11.44;72.15
79150;BME280;68563;45.644;13.782;2024-02-23T07:59:11;99595.56;;;11.48;71.40
79150;BME280;68563;45.644;13.782;2024-02-23T08:01:37;99593.72;;;11.52;71.32
79150;BME280;68563;45.644;13.782;2024-02-23T08:04:02;99583.31;;;11.53;71.41
79150;BME280;68563;45.644;13.782;2024-02-23T08:06:28;99591.13;;;11.52;70.75
79150;BME280;68563;45.644;13.782;2024-02-23T08:08:54;99588.28;;;11.59;73.66
79150;BME280;68563;45.644;13.782;2024-02-23T08:11:20;99577.75;;;11.64;71.40
79150;BME280;68563;45.644;13.782;2024-02-23T08:13:46;99567.31;;;11.65;71.06
79150;BME280;68563;45.644;13.782;2024-02-23T08:16:11;99564.72;;;11.65;71.01
79150;BME280;68563;45.644;13.782;2024-02-23T08:18:36;99563.31;;;11.57;70.92
79150;BME280;68563;45.644;13.782;2024-02-23T08:21:02;99537.38;;;11.57;70.83
79150;BME280;68563;45.644;13.782;2024-02-23T08:23:28;99548.53;;;11.59;70.39
79150;BME280;68563;45.644;13.782;2024-02-23T08:25:55;99557.03;;;11.62;70.11
79150;BME280;68563;45.644;13.782;2024-02-23T08:28:22;99533.66;;;11.64;70.16
79150;BME280;68563;45.644;13.782;2024-02-23T08:30:48;99553.41;;;11.68;69.81
79150;BME280;68563;45.644;13.782;2024-02-23T08:33:13;99545.47;;;11.73;68.93
79150;BME280;68563;45.644;13.782;2024-02-23T08:35:39;99537.84;;;11.68;69.58
79150;BME280;68563;45.644;13.782;2024-02-23T08:38:05;99542.19;;;11.68;69.31
79150;BME280;68563;45.644;13.782;2024-02-23T08:40:30;99533.38;;;11.72;69.41
79150;BME280;68563;45.644;13.782;2024-02-23T08:42:56;99534.28;;;11.71;69.09
79150;BME280;68563;45.644;13.782;2024-02-23T08:45:21;99523.81;;;11.74;68.82
79150;BME280;68563;45.644;13.782;2024-02-23T08:47:46;99520.25;;;11.76;68.71
79150;BME280;68563;45.644;13.782;2024-02-23T08:50:12;99521.97;;;11.76;68.95
79150;BME280;68563;45.644;13.782;2024-02-23T08:52:37;99510.94;;;11.71;69.02
79150;BME280;68563;45.644;13.782;2024-02-23T08:55:03;99502.19;;;11.73;68.62
79150;BME280;68563;45.644;13.782;2024-02-23T08:57:29;99503.91;;;11.74;68.07
79150;BME280;68563;45.644;13.782;2024-02-23T08:59:54;99525.44;;;11.76;68.13
79150;BME280;68563;45.644;13.782;2024-02-23T09:02:22;99498.59;;;11.77;67.64
79150;BME280;68563;45.644;13.782;2024-02-23T09:04:48;99498.31;;;11.85;67.61
79150;BME280;68563;45.644;13.782;2024-02-23T09:07:13;99516.59;;;11.82;68.04
79150;BME280;68563;45.644;13.782;2024-02-23T09:09:39;99484.78;;;11.77;67.97
79150;BME280;68563;45.644;13.782;2024-02-23T09:12:05;99489.13;;;11.76;68.14
79150;BME280;68563;45.644;13.782;2024-02-23T09:14:32;99492.47;;;11.80;67.50
79150;BME280;68563;45.644;13.782;2024-02-23T09:16:58;99483.22;;;11.73;67.22
79150;BME280;68563;45.644;13.782;2024-02-23T09:19:24;99487.44;;;11.75;67.10
79150;BME280;68563;45.644;13.782;2024-02-23T09:21:49;99471.88;;;11.75;67.62
79150;BME280;68563;45.644;13.782;2024-02-23T09:24:15;99487.50;;;11.74;67.59
79150;BME280;68563;45.644;13.782;2024-02-23T09:26:40;99486.38;;;11.81;67.42
79150;BME280;68563;45.644;13.782;2024-02-23T09:29:06;99467.47;;;11.77;67.66
79150;BME280;68563;45.644;13.782;2024-02-23T09:31:32;99460.38;;;11.82;67.63
79150;BME280;68563;45.644;13.782;2024-02-23T09:33:57;99465.63;;;11.81;67.55
79150;BME280;68563;45.644;13.782;2024-02-23T09:36:23;99465.50;;;11.84;67.32
79150;BME280;68563;45.644;13.782;2024-02-23T09:38:50;99457.72;;;11.84;67.62
79150;BME280;68563;45.644;13.782;2024-02-23T09:41:22;99465.31;;;11.89;67.45
79150;BME280;68563;45.644;13.782;2024-02-23T09:43:49;99467.69;;;11.95;67.72
79150;BME280;68563;45.644;13.782;2024-02-23T09:46:16;99457.53;;;11.89;68.27
79150;BME280;68563;45.644;13.782;2024-02-23T09:48:43;99455.84;;;11.88;68.47
79150;BME280;68563;45.644;13.782;2024-02-23T09:51:10;99451.63;;;11.85;68.59
79150;BME280;68563;45.644;13.782;2024-02-23T09:53:37;99446.38;;;11.87;68.64
79150;BME280;68563;45.644;13.782;2024-02-23T09:56:04;99451.38;;;11.91;68.15
79150;BME280;68563;45.644;13.782;2024-02-23T09:58:31;99462.66;;;11.90;68.60
79150;BME280;68563;45.644;13.782;2024-02-23T10:00:58;99453.09;;;11.92;68.30
79150;BME280;68563;45.644;13.782;2024-02-23T10:03:27;99452.19;;;11.93;68.27
79150;BME280;68563;45.644;13.782;2024-02-23T10:05:55;99454.56;;;12.00;68.37
79150;BME280;68563;45.644;13.782;2024-02-23T10:08:21;99467.63;;;11.98;68.22
79150;BME280;68563;45.644;13.782;2024-02-23T10:10:46;99433.13;;;11.94;68.68
79150;BME280;68563;45.644;13.782;2024-02-23T10:13:19;99446.94;;;11.95;68.31
79150;BME280;68563;45.644;13.782;2024-02-23T10:15:46;99429.63;;;11.95;68.48
79150;BME280;68563;45.644;13.782;2024-02-23T10:18:12;99433.91;;;11.96;68.22
79150;BME280;68563;45.644;13.782;2024-02-23T10:20:38;99434.84;;;11.94;68.78
79150;BME280;68563;45.644;13.782;2024-02-23T10:23:04;99437.31;;;11.99;68.70
79150;BME280;68563;45.644;13.782;2024-02-23T10:25:29;99433.91;;;11.96;68.49
79150;BME280;68563;45.644;13.782;2024-02-23T10:27:55;99442.50;;;11.99;68.67
79150;BME280;68563;45.644;13.782;2024-02-23T10:30:20;99431.88;;;12.05;68.71
79150;BME280;68563;45.644;13.782;2024-02-23T10:32:46;99423.19;;;12.06;68.66
79150;BME280;68563;45.644;13.782;2024-02-23T10:35:15;99418.63;;;12.12;68.52
79150;BME280;68563;45.644;13.782;2024-02-23T10:37:48;99436.59;;;12.17;68.70
79150;BME280;68563;45.644;13.782;2024-02-23T10:40:16;99407.13;;;12.18;68.39
79150;BME280;68563;45.644;13.782;2024-02-23T10:42:43;99418.41;;;12.17;68.56
79150;BME280;68563;45.644;13.782;2024-02-23T10:45:12;99401.22;;;12.15;68.58
79150;BME280;68563;45.644;13.782;2024-02-23T10:47:38;99414.16;;;12.16;68.97
79150;BME280;68563;45.644;13.782;2024-02-23T10:50:04;99437.44;;;12.18;68.98
79150;BME280;68563;45.644;13.782;2024-02-23T10:52:30;99418.47;;;12.16;69.13
79150;BME280;68563;45.644;13.782;2024-02-23T10:54:57;99414.16;;;12.16;69.23
79150;BME280;68563;45.644;13.782;2024-02-23T10:57:25;99400.25;;;12.17;69.45
79150;BME280;68563;45.644;13.782;2024-02-23T10:59:51;99408.81;;;12.19;69.00
79150;BME280;68563;45.644;13.782;2024-02-23T11:02:19;99427.13;;;12.16;69.44
79150;BME280;68563;45.644;13.782;2024-02-23T11:04:47;99403.63;;;12.19;69.19
79150;BME280;68563;45.644;13.782;2024-02-23T11:07:15;99418.41;;;12.17;69.30
79150;BME280;68563;45.644;13.782;2024-02-23T11:09:41;99410.41;;;12.23;68.87
79150;BME280;68563;45.644;13.782;2024-02-23T11:12:07;99418.38;;;12.19;69.05
79150;BME280;68563;45.644;13.782;2024-02-23T11:14:38;99406.22;;;12.19;68.99
79150;BME280;68563;45.644;13.782;2024-02-23T11:17:04;99405.22;;;12.23;69.34
79150;BME280;68563;45.644;13.782;2024-02-23T11:22:00;99377.69;;;12.19;69.76
79150;BME280;68563;45.644;13.782;2024-02-23T11:24:28;99385.66;;;12.15;70.24
79150;BME280;68563;45.644;13.782;2024-02-23T11:26:58;99387.22;;;12.19;71.03
79150;BME280;68563;45.644;13.782;2024-02-23T11:29:26;99368.53;;;12.10;71.76
79150;BME280;68563;45.644;13.782;2024-02-23T11:31:53;99372.81;;;12.11;72.02
79150;BME280;68563;45.644;13.782;2024-02-23T11:34:26;99374.53;;;12.11;72.12
79150;BME280;68563;45.644;13.782;2024-02-23T11:36:52;99378.84;;;12.12;72.15
79150;BME280;68563;45.644;13.782;2024-02-23T11:39:22;99373.25;;;12.01;72.18
79150;BME280;68563;45.644;13.782;2024-02-23T11:41:50;99376.47;;;12.06;72.91
79150;BME280;68563;45.644;13.782;2024-02-23T11:44:16;99365.31;;;12.04;72.37
79150;BME280;68563;45.644;13.782;2024-02-23T11:46:43;99363.59;;;12.04;72.34
79150;BME280;68563;45.644;13.782;2024-02-23T11:49:10;99353.78;;;12.11;71.78
79150;BME280;68563;45.644;13.782;2024-02-23T11:51:36;99363.34;;;12.10;71.77
79150;BME280;68563;45.644;13.782;2024-02-23T11:54:01;99347.75;;;12.10;71.76
79150;BME280;68563;45.644;13.782;2024-02-23T11:56:29;99354.47;;;12.16;71.76
79150;BME280;68563;45.644;13.782;2024-02-23T11:58:55;99343.16;;;12.17;72.15
79150;BME280;68563;45.644;13.782;2024-02-23T12:01:21;99334.59;;;12.15;71.69
79150;BME280;68563;45.644;13.782;2024-02-23T12:03:46;99352.53;;;12.21;72.08
79150;BME280;68563;45.644;13.782;2024-02-23T12:06:14;99344.81;;;12.20;72.44
79150;BME280;68563;45.644;13.782;2024-02-23T12:08:40;99318.88;;;12.18;72.34
79150;BME280;68563;45.644;13.782;2024-02-23T12:11:08;99310.28;;;12.18;72.73
79150;BME280;68563;45.644;13.782;2024-02-23T12:13:35;99320.59;;;12.19;72.95
79150;BME280;68563;45.644;13.782;2024-02-23T12:16:01;99320.59;;;12.19;72.44
79150;BME280;68563;45.644;13.782;2024-02-23T12:18:27;99310.09;;;12.22;72.69
79150;BME280;68563;45.644;13.782;2024-02-23T12:20:59;99303.78;;;12.28;72.27
79150;BME280;68563;45.644;13.782;2024-02-23T12:23:26;99288.28;;;12.26;72.07
79150;BME280;68563;45.644;13.782;2024-02-23T12:25:56;99301.06;;;12.31;71.80
79150;BME280;68563;45.644;13.782;2024-02-23T12:28:22;99266.34;;;12.34;71.93
79150;BME280;68563;45.644;13.782;2024-02-23T12:31:00;99290.59;;;12.33;71.95
79150;BME280;68563;45.644;13.782;2024-02-23T12:33:35;99271.59;;;12.32;72.30
79150;BME280;68563;45.644;13.782;2024-02-23T12:36:02;99286.09;;;12.38;72.04
79150;BME280;68563;45.644;13.782;2024-02-23T12:38:29;99252.44;;;12.35;72.27
79150;BME280;68563;45.644;13.782;2024-02-23T12:40:54;99252.34;;;12.38;72.46
79150;BME280;68563;45.644;13.782;2024-02-23T12:43:20;99263.28;;;12.44;72.46